createdAt,value
2019-03-06T00:01:15.742Z,7.90
2019-03-06T00:03:47.403Z,7.90
2019-03-06T00:06:30.103Z,7.90
2019-03-06T00:09:24.833Z,8.00
2019-03-06T00:11:59.824Z,7.90
2019-03-06T00:14:47.414Z,7.90
2019-03-06T00:17:51.056Z,7.80
2019-03-06T00:20:24.626Z,7.80
2019-03-06T00:23:03.860Z,7.70
2019-03-06T00:25:55.093Z,7.70
2019-03-06T00:28:26.764Z,7.70
2019-03-06T00:31:10.381Z,7.70
2019-03-06T00:33:58.825Z,7.60
2019-03-06T00:37:07.878Z,7.60
2019-03-06T00:43:12.294Z,7.70
2019-03-06T00:49:17.002Z,7.70
2019-03-06T00:51:54.811Z,7.60
2019-03-06T00:58:18.833Z,7.60
2019-03-06T01:01:48.244Z,7.70
2019-03-06T01:04:38.905Z,7.60
2019-03-06T01:07:40.846Z,7.70
2019-03-06T01:10:19.378Z,7.60
2019-03-06T01:13:05.959Z,7.60
2019-03-06T01:15:44.203Z,7.60
2019-03-06T01:18:20.820Z,7.50
2019-03-06T01:21:11.961Z,7.50
2019-03-06T01:24:11.975Z,7.40
2019-03-06T01:26:46.729Z,7.40
2019-03-06T01:29:21.005Z,7.40
2019-03-06T01:31:54.961Z,7.40
2019-03-06T01:34:50.322Z,7.40
2019-03-06T01:37:31.062Z,7.30
2019-03-06T01:40:27.648Z,7.30
2019-03-06T01:43:03.370Z,7.20
2019-03-06T01:45:41.941Z,7.20
2019-03-06T01:48:29.153Z,7.30
2019-03-06T01:51:19.162Z,7.30
2019-03-06T01:53:51.611Z,7.30
2019-03-06T01:56:25.104Z,7.30
2019-03-06T01:58:59.605Z,7.30
2019-03-06T02:01:34.331Z,7.30
2019-03-06T02:04:06.745Z,7.30
2019-03-06T02:06:44.780Z,7.30
2019-03-06T02:09:24.869Z,7.30
2019-03-06T02:11:57.821Z,7.30
2019-03-06T02:14:35.062Z,7.40
2019-03-06T02:17:06.593Z,7.30
2019-03-06T02:19:38.682Z,7.40
2019-03-06T02:22:09.282Z,7.40
2019-03-06T02:24:41.937Z,7.30
2019-03-06T02:27:12.782Z,7.30
2019-03-06T02:29:44.489Z,7.40
2019-03-06T02:32:15.427Z,7.40
2019-03-06T02:34:46.652Z,7.40
2019-03-06T02:37:27.240Z,7.40
2019-03-06T02:39:58.892Z,7.40
2019-03-06T02:42:37.385Z,7.50
2019-03-06T02:45:24.707Z,7.40
2019-03-06T02:48:11.586Z,7.50
2019-03-06T02:50:42.392Z,7.40
2019-03-06T02:53:12.785Z,7.40
2019-03-06T02:55:43.195Z,7.40
2019-03-06T02:58:25.315Z,7.40
2019-03-06T03:01:34.155Z,7.40
2019-03-06T03:04:16.372Z,7.40
2019-03-06T03:06:54.765Z,7.40
2019-03-06T03:12:26.212Z,7.40
2019-03-06T03:15:07.174Z,7.50
2019-03-06T03:17:41.251Z,7.50
2019-03-06T03:20:24.927Z,7.60
2019-03-06T03:23:02.696Z,7.60
2019-03-06T03:25:37.206Z,7.70
2019-03-06T03:28:15.697Z,7.70
2019-03-06T03:30:48.872Z,7.70
2019-03-06T03:33:24.474Z,7.80
2019-03-06T03:35:55.229Z,7.80
2019-03-06T03:38:26.205Z,7.80
2019-03-06T03:41:01.920Z,7.80
2019-03-06T03:43:37.244Z,7.90
2019-03-06T03:46:09.585Z,7.90
2019-03-06T03:48:45.797Z,7.90
2019-03-06T03:51:17.839Z,7.90
2019-03-06T03:53:55.291Z,7.90
2019-03-06T03:56:32.384Z,7.90
2019-03-06T03:59:03.862Z,7.90
2019-03-06T04:01:34.640Z,7.90
2019-03-06T04:04:05.673Z,7.90
2019-03-06T04:06:38.796Z,7.90
2019-03-06T04:09:09.508Z,7.90
2019-03-06T04:11:41.729Z,7.90
2019-03-06T04:14:13.742Z,8.00
2019-03-06T04:16:44.747Z,7.90
2019-03-06T04:19:15.471Z,7.90
2019-03-06T04:21:47.431Z,7.90
2019-03-06T04:24:19.704Z,7.90
2019-03-06T04:26:50.872Z,7.90
2019-03-06T04:29:24.001Z,7.90
2019-03-06T04:31:56.329Z,7.90
2019-03-06T04:34:26.718Z,7.90
2019-03-06T04:36:59.171Z,7.90
2019-03-06T04:39:40.549Z,8.00
2019-03-06T04:42:14.844Z,7.90
2019-03-06T04:44:46.007Z,7.90
2019-03-06T04:47:17.569Z,7.90
2019-03-06T04:49:53.002Z,8.00
2019-03-06T04:52:28.696Z,7.90
2019-03-06T04:55:00.823Z,7.90
2019-03-06T04:57:35.855Z,7.90
2019-03-06T05:00:11.394Z,7.80
2019-03-06T05:02:45.301Z,7.80
2019-03-06T05:05:18.327Z,7.80
2019-03-06T05:07:53.410Z,7.70
2019-03-06T05:10:24.541Z,7.70
2019-03-06T05:12:54.660Z,7.70
2019-03-06T05:15:25.744Z,7.60
2019-03-06T05:18:14.654Z,7.60
2019-03-06T05:20:47.309Z,7.60
2019-03-06T05:23:17.852Z,7.60
2019-03-06T05:25:48.572Z,7.60
2019-03-06T05:28:18.954Z,7.60
2019-03-06T05:30:49.182Z,7.50
2019-03-06T05:33:19.502Z,7.50
2019-03-06T05:36:09.185Z,7.50
2019-03-06T05:38:46.923Z,7.50
2019-03-06T05:41:17.285Z,7.50
2019-03-06T05:43:47.938Z,7.40
2019-03-06T05:46:20.944Z,7.50
2019-03-06T05:48:53.964Z,7.40
2019-03-06T05:51:26.684Z,7.40
2019-03-06T05:53:59.916Z,7.40
2019-03-06T05:56:40.662Z,7.40
2019-03-06T05:59:16.287Z,7.40
2019-03-06T06:04:43.138Z,7.40
2019-03-06T06:07:23.549Z,7.40
2019-03-06T06:10:04.151Z,7.50
2019-03-06T06:12:48.190Z,7.50
2019-03-06T06:15:20.244Z,7.50
2019-03-06T06:17:54.664Z,7.50
2019-03-06T06:20:50.878Z,7.50
2019-03-06T06:24:00.951Z,7.50
2019-03-06T06:26:35.530Z,7.60
2019-03-06T06:29:10.772Z,7.60
2019-03-06T06:31:43.047Z,7.60
2019-03-06T06:34:16.418Z,7.60
2019-03-06T06:37:01.078Z,7.60
2019-03-06T06:39:40.181Z,7.60
2019-03-06T06:42:18.259Z,7.60
2019-03-06T06:44:51.970Z,7.60
2019-03-06T06:47:27.368Z,7.60
2019-03-06T06:50:06.642Z,7.60
2019-03-06T06:53:03.197Z,7.70
2019-03-06T06:56:02.387Z,7.70
2019-03-06T06:59:28.198Z,7.70
2019-03-06T07:02:46.867Z,7.80
2019-03-06T07:05:46.188Z,7.80
2019-03-06T07:08:45.247Z,7.80
2019-03-06T07:11:44.767Z,7.80
2019-03-06T07:14:48.497Z,7.90
2019-03-06T07:17:48.398Z,7.90
2019-03-06T07:21:05.329Z,7.90
2019-03-06T07:23:55.791Z,8.00
2019-03-06T07:26:58.570Z,8.00
2019-03-06T07:30:09.503Z,8.00
2019-03-06T07:33:16.052Z,8.00
2019-03-06T07:36:42.416Z,8.10
2019-03-06T07:39:24.594Z,8.10
2019-03-06T07:42:29.949Z,8.30
2019-03-06T07:46:05.857Z,8.30
2019-03-06T07:49:21.389Z,8.40
2019-03-06T07:52:06.116Z,8.50
2019-03-06T07:54:57.709Z,8.60
2019-03-06T07:57:53.678Z,8.60
2019-03-06T08:00:24.679Z,8.70
2019-03-06T08:03:18.642Z,8.80
2019-03-06T08:05:55.065Z,8.90
2019-03-06T08:08:35.372Z,9.00
2019-03-06T08:11:12.793Z,9.10
2019-03-06T08:14:22.312Z,9.10
2019-03-06T08:17:17.970Z,9.20
2019-03-06T08:20:09.270Z,9.20
2019-03-06T08:23:21.823Z,9.20
2019-03-06T08:26:01.218Z,9.30
2019-03-06T08:28:40.736Z,9.40
2019-03-06T08:31:39.405Z,9.50
2019-03-06T08:34:11.603Z,9.50
2019-03-06T08:37:09.613Z,9.60
2019-03-06T08:39:43.347Z,9.60
2019-03-06T08:42:23.408Z,9.80
2019-03-06T08:45:05.432Z,9.90
2019-03-06T08:47:59.858Z,10.10
2019-03-06T08:50:58.923Z,10.20
2019-03-06T08:53:48.883Z,10.40
2019-03-06T08:56:51.361Z,10.60
2019-03-06T09:00:01.431Z,10.70
2019-03-06T09:02:47.719Z,10.80
2019-03-06T09:06:06.825Z,10.90
2019-03-06T09:08:56.180Z,11.00
2019-03-06T09:11:43.930Z,11.10
2019-03-06T09:14:59.377Z,11.20
2019-03-06T09:18:09.037Z,11.20
2019-03-06T09:21:08.733Z,11.20
2019-03-06T09:24:12.457Z,11.30
2019-03-06T09:27:11.111Z,11.50
2019-03-06T09:30:01.813Z,11.50
2019-03-06T09:32:51.188Z,11.60
2019-03-06T09:36:03.307Z,11.50
2019-03-06T09:38:47.068Z,11.30
2019-03-06T09:41:36.426Z,11.20
2019-03-06T09:44:27.765Z,11.30
2019-03-06T09:47:07.252Z,11.40
2019-03-06T09:49:57.503Z,11.60
2019-03-06T09:52:53.481Z,11.60
2019-03-06T09:55:57.511Z,11.50
2019-03-06T09:58:41.461Z,11.70
2019-03-06T10:01:44.717Z,11.80
2019-03-06T10:04:41.671Z,11.80
2019-03-06T10:07:31.340Z,11.80
2019-03-06T10:10:18.861Z,11.90
2019-03-06T10:13:19.427Z,11.90
2019-03-06T10:16:09.384Z,12.10
2019-03-06T10:18:52.843Z,12.10
2019-03-06T10:21:30.280Z,11.90
2019-03-06T10:24:27.408Z,11.70
2019-03-06T10:27:23.696Z,11.80
2019-03-06T10:30:07.886Z,11.90
2019-03-06T10:32:47.160Z,11.90
2019-03-06T10:35:22.233Z,12.00
2019-03-06T10:37:57.743Z,12.10
2019-03-06T10:40:48.083Z,12.30
2019-03-06T10:43:21.291Z,12.40
2019-03-06T10:45:53.962Z,12.50
2019-03-06T10:48:29.429Z,12.30
2019-03-06T10:51:09.831Z,12.30
2019-03-06T10:53:53.350Z,12.50
2019-03-06T10:56:28.762Z,12.40
2019-03-06T10:59:15.268Z,12.40
2019-03-06T11:01:50.404Z,12.30
2019-03-06T11:04:40.652Z,12.20
2019-03-06T11:14:50.354Z,12.10
2019-03-06T11:17:22.638Z,12.10
2019-03-06T11:20:17.335Z,12.20
2019-03-06T11:22:51.877Z,12.20
2019-03-06T11:25:52.347Z,12.10
2019-03-06T11:28:35.455Z,12.30
2019-03-06T11:31:07.783Z,12.50
2019-03-06T11:33:40.671Z,12.60
2019-03-06T11:38:57.216Z,12.70
2019-03-06T11:41:38.580Z,12.50
2019-03-06T11:44:23.333Z,12.50
2019-03-06T11:47:44.102Z,12.50
2019-03-06T11:50:49.262Z,12.40
2019-03-06T11:53:22.187Z,12.50
2019-03-06T11:55:56.124Z,12.60
2019-03-06T11:58:27.650Z,12.50
2019-03-06T12:00:59.640Z,12.50
2019-03-06T12:03:31.534Z,12.60
2019-03-06T12:06:56.564Z,12.80
2019-03-06T12:09:35.210Z,13.00
2019-03-06T12:12:20.055Z,13.30
2019-03-06T12:15:03.669Z,13.30
2019-03-06T12:17:35.238Z,13.40
2019-03-06T12:20:11.321Z,13.50
2019-03-06T12:22:43.866Z,13.50
2019-03-06T12:25:22.360Z,13.60
2019-03-06T12:27:59.568Z,13.50
2019-03-06T12:30:42.855Z,13.30
2019-03-06T12:33:24.155Z,13.10
2019-03-06T12:36:36.834Z,13.20
2019-03-06T12:38:50.188Z,13.30
2019-03-06T12:41:23.222Z,13.40
2019-03-06T12:44:09.991Z,13.40
2019-03-06T12:46:56.564Z,13.20
2019-03-06T12:49:30.233Z,13.10
2019-03-06T12:52:05.622Z,13.10
2019-03-06T12:54:40.769Z,13.10
2019-03-06T12:57:33.403Z,13.10
2019-03-06T13:00:29.288Z,13.00
2019-03-06T13:03:14.891Z,12.80
2019-03-06T13:06:04.234Z,12.70
2019-03-06T13:08:50.434Z,12.70
2019-03-06T13:11:49.209Z,12.60
2019-03-06T13:14:56.171Z,12.50
2019-03-06T13:17:37.171Z,12.40
2019-03-06T13:20:22.453Z,12.30
2019-03-06T13:23:04.059Z,12.30
2019-03-06T13:25:43.865Z,12.40
2019-03-06T13:28:18.121Z,12.50
2019-03-06T13:30:54.281Z,12.60
2019-03-06T13:33:45.577Z,12.70
2019-03-06T13:36:18.700Z,12.80
2019-03-06T13:38:55.053Z,12.80
2019-03-06T13:41:55.426Z,12.90
2019-03-06T13:44:39.943Z,12.90
2019-03-06T13:47:57.992Z,13.00
2019-03-06T13:50:56.789Z,13.00
2019-03-06T13:53:33.349Z,13.00
2019-03-06T13:56:12.868Z,13.10
2019-03-06T13:58:48.947Z,13.10
2019-03-06T14:01:25.397Z,13.10
2019-03-06T14:04:13.128Z,13.00
2019-03-06T14:07:23.283Z,13.00
2019-03-06T14:28:27.097Z,13.20
2019-03-06T14:31:34.352Z,13.10
2019-03-06T14:34:35.135Z,13.10
2019-03-06T14:37:20.955Z,13.20
2019-03-06T14:40:16.711Z,13.10
2019-03-06T14:43:10.784Z,13.10
2019-03-06T14:45:46.649Z,13.10
2019-03-06T14:48:52.817Z,13.10
2019-03-06T14:55:34.429Z,13.20
2019-03-06T14:58:13.358Z,13.20
2019-03-06T15:01:52.147Z,13.20
2019-03-06T15:04:37.745Z,13.20
2019-03-06T15:07:53.612Z,13.30
2019-03-06T15:11:21.569Z,13.30
2019-03-06T15:14:10.252Z,13.30
2019-03-06T15:16:45.285Z,13.40
2019-03-06T15:19:45.607Z,13.50
2019-03-06T15:22:55.657Z,13.50
2019-03-06T15:25:27.174Z,13.50
2019-03-06T15:27:58.554Z,13.60
2019-03-06T15:31:00.070Z,13.60
2019-03-06T15:34:14.881Z,13.70
2019-03-06T15:36:56.847Z,13.80
2019-03-06T15:40:24.087Z,13.80
2019-03-06T15:43:05.987Z,13.90
2019-03-06T15:57:30.362Z,14.00
2019-03-06T16:00:29.326Z,14.00
2019-03-06T16:03:19.553Z,14.00
2019-03-06T16:18:27.980Z,13.90
2019-03-06T16:21:21.678Z,13.90
2019-03-06T16:24:05.844Z,13.90
2019-03-06T16:26:52.869Z,13.90
2019-03-06T16:29:37.580Z,13.90
2019-03-06T16:32:25.340Z,13.90
2019-03-06T16:35:17.360Z,13.90
2019-03-06T16:38:14.366Z,13.90
2019-03-06T16:48:37.627Z,13.90
2019-03-06T16:51:11.489Z,13.90
2019-03-06T16:53:54.997Z,13.90
2019-03-06T16:56:29.549Z,13.90
2019-03-06T16:59:06.293Z,13.90
2019-03-06T17:02:11.218Z,13.90
2019-03-06T17:04:54.231Z,13.90
2019-03-06T17:07:32.673Z,13.80
2019-03-06T17:10:36.309Z,13.80
2019-03-06T17:13:24.065Z,13.80
2019-03-06T17:15:59.272Z,13.80
2019-03-06T17:19:02.349Z,13.80
2019-03-06T17:22:22.104Z,13.70
2019-03-06T17:25:16.357Z,13.60
2019-03-06T17:28:32.471Z,13.50
2019-03-06T17:42:16.385Z,13.50
2019-03-06T17:49:20.676Z,13.50
2019-03-06T17:52:31.642Z,13.50
2019-03-06T18:00:01.838Z,13.40
2019-03-06T18:18:54.762Z,13.20
2019-03-06T18:32:55.419Z,12.90
2019-03-06T18:43:33.468Z,12.90
2019-03-06T18:46:22.762Z,12.90
2019-03-06T18:50:01.535Z,12.90
2019-03-06T18:52:44.464Z,12.90
2019-03-06T18:56:25.611Z,13.00
2019-03-06T18:59:34.564Z,13.00
2019-03-06T19:02:14.604Z,13.00
2019-03-06T19:04:57.177Z,13.10
2019-03-06T19:12:33.779Z,13.20
2019-03-06T19:19:05.893Z,13.20
2019-03-06T19:21:50.832Z,13.20
2019-03-06T19:24:47.832Z,13.20
2019-03-06T19:28:39.369Z,13.20
2019-03-06T19:31:19.690Z,13.20
2019-03-06T19:34:58.105Z,13.20
2019-03-06T19:38:31.275Z,13.20
2019-03-06T20:18:06.446Z,13.00
2019-03-06T20:20:50.071Z,13.00
2019-03-06T20:23:30.344Z,13.00
2019-03-06T20:26:22.518Z,13.00
2019-03-06T20:29:00.134Z,12.90
2019-03-06T20:31:48.622Z,12.80
2019-03-06T20:34:26.059Z,12.60
2019-03-06T20:37:02.203Z,12.60
2019-03-06T20:39:38.214Z,12.60
2019-03-06T20:42:15.363Z,12.50
2019-03-06T20:44:54.644Z,12.40
2019-03-06T20:47:25.531Z,12.40
2019-03-06T20:50:06.887Z,12.50
2019-03-06T20:52:38.821Z,12.50
2019-03-06T20:55:27.757Z,12.50
2019-03-06T20:57:58.859Z,12.60
2019-03-06T21:00:28.743Z,12.60
2019-03-06T21:02:59.691Z,12.70
2019-03-06T21:05:36.410Z,12.70
2019-03-06T21:08:18.536Z,12.70
2019-03-06T21:10:55.723Z,12.80
2019-03-06T21:13:39.286Z,12.90
2019-03-06T21:16:12.258Z,13.00
2019-03-06T21:18:45.222Z,13.10
2019-03-06T21:21:34.732Z,13.10
2019-03-06T21:24:20.500Z,13.20
2019-03-06T21:27:03.549Z,13.30
2019-03-06T21:29:34.481Z,13.30
2019-03-06T21:32:06.946Z,13.30
2019-03-06T21:34:37.223Z,13.40
2019-03-06T21:37:11.355Z,13.40
2019-03-06T21:39:58.552Z,13.30
2019-03-06T21:42:45.060Z,13.20
2019-03-06T21:45:33.628Z,13.10
2019-03-06T21:48:10.144Z,13.00
2019-03-06T21:50:47.094Z,12.90
2019-03-06T21:53:24.743Z,12.80
2019-03-06T21:55:58.622Z,12.70
2019-03-06T21:58:34.721Z,12.60
2019-03-06T22:01:15.038Z,12.60
2019-03-06T22:03:51.091Z,12.50
2019-03-06T22:06:26.611Z,12.40
2019-03-06T22:09:02.408Z,12.40
2019-03-06T22:11:34.528Z,12.30
2019-03-06T22:14:06.220Z,12.40
2019-03-06T22:16:36.453Z,12.40
2019-03-06T22:19:26.980Z,12.40
2019-03-06T22:22:13.453Z,12.50
2019-03-06T22:24:57.963Z,12.60
2019-03-06T22:27:38.552Z,12.70
2019-03-06T22:30:25.682Z,12.70
2019-03-06T22:33:09.370Z,12.80
2019-03-06T22:35:51.605Z,12.80
2019-03-06T22:38:43.260Z,12.80
2019-03-06T22:41:32.011Z,12.90
2019-03-06T22:44:24.696Z,12.90
2019-03-06T22:47:13.309Z,13.00
2019-03-06T22:49:56.887Z,13.00
2019-03-06T22:52:38.273Z,13.00
2019-03-06T22:55:18.236Z,13.10
2019-03-06T22:58:07.008Z,13.10
2019-03-06T23:00:57.975Z,13.00
2019-03-06T23:03:30.778Z,13.00
2019-03-06T23:06:05.305Z,13.00
2019-03-06T23:08:39.095Z,13.00
2019-03-06T23:11:30.225Z,13.00
2019-03-06T23:14:15.466Z,12.90
2019-03-06T23:16:53.961Z,12.90
2019-03-06T23:19:28.431Z,12.90
2019-03-06T23:22:15.146Z,12.80
2019-03-06T23:24:50.839Z,12.80
2019-03-06T23:27:21.444Z,12.70
2019-03-06T23:29:52.667Z,12.60
2019-03-06T23:32:25.305Z,12.40
2019-03-06T23:35:13.701Z,12.30
2019-03-06T23:38:05.173Z,12.20
2019-03-06T23:40:36.750Z,12.20
2019-03-06T23:43:07.287Z,12.10
2019-03-06T23:45:43.093Z,12.00
2019-03-06T23:48:16.469Z,11.90
2019-03-06T23:50:50.619Z,11.80
2019-03-06T23:53:29.659Z,11.70
2019-03-06T23:56:02.067Z,11.50
2019-03-06T23:58:33.924Z,11.50
